sensor_id;sensor_type;location;lat;lon;timestamp;temperature;humidity
563;DHT22;266;49.514;8.294;2023-07-29T00:00:53;18.60;99.90
563;DHT22;266;49.514;8.294;2023-07-29T00:03:23;18.60;99.90
563;DHT22;266;49.514;8.294;2023-07-29T00:05:51;18.60;99.90
563;DHT22;266;49.514;8.294;2023-07-29T00:08:20;18.70;99.90
563;DHT22;266;49.514;8.294;2023-07-29T00:10:48;18.60;99.90
563;DHT22;266;49.514;8.294;2023-07-29T00:13:16;18.70;99.90
563;DHT22;266;49.514;8.294;2023-07-29T00:15:48;18.70;99.90
563;DHT22;266;49.514;8.294;2023-07-29T00:18:16;18.70;99.90
563;DHT22;266;49.514;8.294;2023-07-29T00:20:44;18.70;99.90
563;DHT22;266;49.514;8.294;2023-07-29T00:23:12;18.70;99.90
563;DHT22;266;49.514;8.294;2023-07-29T00:25:41;18.70;99.90
563;DHT22;266;49.514;8.294;2023-07-29T00:28:09;18.70;99.90
563;DHT22;266;49.514;8.294;2023-07-29T00:30:38;18.70;99.90
563;DHT22;266;49.514;8.294;2023-07-29T00:33:06;18.70;99.90
563;DHT22;266;49.514;8.294;2023-07-29T00:35:34;18.70;99.90
563;DHT22;266;49.514;8.294;2023-07-29T00:38:02;18.70;99.90
563;DHT22;266;49.514;8.294;2023-07-29T00:40:31;18.60;99.90
563;DHT22;266;49.514;8.294;2023-07-29T00:43:04;18.70;99.90
563;DHT22;266;49.514;8.294;2023-07-29T00:45:32;18.70;99.90
563;DHT22;266;49.514;8.294;2023-07-29T00:48:01;18.60;99.90
563;DHT22;266;49.514;8.294;2023-07-29T00:50:30;18.60;99.90
563;DHT22;266;49.514;8.294;2023-07-29T00:52:58;18.60;99.90
563;DHT22;266;49.514;8.294;2023-07-29T00:55:27;18.70;99.90
563;DHT22;266;49.514;8.294;2023-07-29T00:57:56;18.70;99.90
563;DHT22;266;49.514;8.294;2023-07-29T01:00:26;18.70;99.90
563;DHT22;266;49.514;8.294;2023-07-29T01:02:54;18.70;99.90
563;DHT22;266;49.514;8.294;2023-07-29T01:05:23;18.70;99.90
563;DHT22;266;49.514;8.294;2023-07-29T01:07:58;18.80;99.90
563;DHT22;266;49.514;8.294;2023-07-29T01:10:36;18.80;99.90
563;DHT22;266;49.514;8.294;2023-07-29T01:13:14;18.80;99.90
563;DHT22;266;49.514;8.294;2023-07-29T01:15:50;18.80;99.90
563;DHT22;266;49.514;8.294;2023-07-29T01:18:23;18.80;99.90
563;DHT22;266;49.514;8.294;2023-07-29T01:20:53;18.80;99.90
563;DHT22;266;49.514;8.294;2023-07-29T01:23:25;18.80;99.90
563;DHT22;266;49.514;8.294;2023-07-29T01:25:53;18.80;99.90
563;DHT22;266;49.514;8.294;2023-07-29T01:28:22;18.80;99.90
563;DHT22;266;49.514;8.294;2023-07-29T01:30:55;18.80;99.90
563;DHT22;266;49.514;8.294;2023-07-29T01:33:26;18.70;99.90
563;DHT22;266;49.514;8.294;2023-07-29T01:35:58;18.70;99.90
563;DHT22;266;49.514;8.294;2023-07-29T01:38:33;18.70;99.90
563;DHT22;266;49.514;8.294;2023-07-29T01:41:01;18.70;99.90
563;DHT22;266;49.514;8.294;2023-07-29T01:43:30;18.70;99.90
563;DHT22;266;49.514;8.294;2023-07-29T01:46:00;18.70;99.90
563;DHT22;266;49.514;8.294;2023-07-29T01:48:28;18.70;99.90
563;DHT22;266;49.514;8.294;2023-07-29T01:50:57;18.70;99.90
563;DHT22;266;49.514;8.294;2023-07-29T01:53:25;18.70;99.90
563;DHT22;266;49.514;8.294;2023-07-29T01:55:54;18.70;99.90
563;DHT22;266;49.514;8.294;2023-07-29T01:58:23;18.70;99.90
563;DHT22;266;49.514;8.294;2023-07-29T02:00:51;18.70;99.90
563;DHT22;266;49.514;8.294;2023-07-29T02:03:19;18.70;99.90
563;DHT22;266;49.514;8.294;2023-07-29T02:05:47;18.70;99.90
563;DHT22;266;49.514;8.294;2023-07-29T02:08:15;18.70;99.90
563;DHT22;266;49.514;8.294;2023-07-29T02:10:43;18.70;99.90
563;DHT22;266;49.514;8.294;2023-07-29T02:13:13;18.60;99.90
563;DHT22;266;49.514;8.294;2023-07-29T02:15:41;18.60;99.90
563;DHT22;266;49.514;8.294;2023-07-29T02:18:09;18.60;99.90
563;DHT22;266;49.514;8.294;2023-07-29T02:20:37;18.60;99.90
563;DHT22;266;49.514;8.294;2023-07-29T02:23:05;18.50;99.90
563;DHT22;266;49.514;8.294;2023-07-29T02:25:35;18.60;99.90
563;DHT22;266;49.514;8.294;2023-07-29T02:28:03;18.50;99.90
563;DHT22;266;49.514;8.294;2023-07-29T02:30:33;18.50;99.90
563;DHT22;266;49.514;8.294;2023-07-29T02:33:01;18.50;99.90
563;DHT22;266;49.514;8.294;2023-07-29T02:35:29;18.50;99.90
563;DHT22;266;49.514;8.294;2023-07-29T02:37:57;18.50;99.90
563;DHT22;266;49.514;8.294;2023-07-29T02:40:24;18.50;99.90
563;DHT22;266;49.514;8.294;2023-07-29T02:42:54;18.50;99.90
563;DHT22;266;49.514;8.294;2023-07-29T02:45:22;18.50;99.90
563;DHT22;266;49.514;8.294;2023-07-29T02:47:52;18.50;99.90
563;DHT22;266;49.514;8.294;2023-07-29T02:50:20;18.40;99.90
563;DHT22;266;49.514;8.294;2023-07-29T02:52:48;18.40;99.90
563;DHT22;266;49.514;8.294;2023-07-29T02:55:17;18.50;99.90
563;DHT22;266;49.514;8.294;2023-07-29T02:57:45;18.40;99.90
563;DHT22;266;49.514;8.294;2023-07-29T03:00:13;18.50;99.90
563;DHT22;266;49.514;8.294;2023-07-29T03:02:42;18.40;99.90
563;DHT22;266;49.514;8.294;2023-07-29T03:05:11;18.40;99.90
563;DHT22;266;49.514;8.294;2023-07-29T03:07:39;18.40;99.90
563;DHT22;266;49.514;8.294;2023-07-29T03:10:07;18.40;99.90
563;DHT22;266;49.514;8.294;2023-07-29T03:12:35;18.40;99.90
563;DHT22;266;49.514;8.294;2023-07-29T03:15:04;18.40;99.90
563;DHT22;266;49.514;8.294;2023-07-29T03:17:33;18.40;99.90
563;DHT22;266;49.514;8.294;2023-07-29T03:20:01;18.40;99.90
563;DHT22;266;49.514;8.294;2023-07-29T03:22:30;18.40;99.90
563;DHT22;266;49.514;8.294;2023-07-29T03:24:58;18.30;99.90
563;DHT22;266;49.514;8.294;2023-07-29T03:27:26;18.40;99.90
563;DHT22;266;49.514;8.294;2023-07-29T03:29:54;18.40;99.90
563;DHT22;266;49.514;8.294;2023-07-29T03:32:22;18.40;99.90
563;DHT22;266;49.514;8.294;2023-07-29T03:34:50;18.40;99.90
563;DHT22;266;49.514;8.294;2023-07-29T03:37:18;18.50;99.90
563;DHT22;266;49.514;8.294;2023-07-29T03:39:48;18.40;99.90
563;DHT22;266;49.514;8.294;2023-07-29T03:42:16;18.40;99.90
563;DHT22;266;49.514;8.294;2023-07-29T03:44:43;18.40;99.90
563;DHT22;266;49.514;8.294;2023-07-29T03:47:11;18.40;99.90
563;DHT22;266;49.514;8.294;2023-07-29T03:49:39;18.40;99.90
563;DHT22;266;49.514;8.294;2023-07-29T03:52:07;18.40;99.90
563;DHT22;266;49.514;8.294;2023-07-29T03:54:35;18.40;99.90
563;DHT22;266;49.514;8.294;2023-07-29T03:57:05;18.40;99.90
563;DHT22;266;49.514;8.294;2023-07-29T03:59:33;18.40;99.90
563;DHT22;266;49.514;8.294;2023-07-29T04:02:01;18.40;99.90
563;DHT22;266;49.514;8.294;2023-07-29T04:04:29;18.40;99.90
563;DHT22;266;49.514;8.294;2023-07-29T04:06:57;18.40;99.90
563;DHT22;266;49.514;8.294;2023-07-29T04:09:25;18.40;99.90
563;DHT22;266;49.514;8.294;2023-07-29T04:11:53;18.50;99.90
563;DHT22;266;49.514;8.294;2023-07-29T04:14:22;18.40;99.90
563;DHT22;266;49.514;8.294;2023-07-29T04:16:50;18.50;99.90
563;DHT22;266;49.514;8.294;2023-07-29T04:19:18;18.40;99.90
563;DHT22;266;49.514;8.294;2023-07-29T04:21:46;18.40;99.90
563;DHT22;266;49.514;8.294;2023-07-29T04:24:14;18.40;99.90
563;DHT22;266;49.514;8.294;2023-07-29T04:26:42;18.40;99.90
563;DHT22;266;49.514;8.294;2023-07-29T04:29:11;18.40;99.90
563;DHT22;266;49.514;8.294;2023-07-29T04:31:40;18.50;99.90
563;DHT22;266;49.514;8.294;2023-07-29T04:34:09;18.50;99.90
563;DHT22;266;49.514;8.294;2023-07-29T04:36:37;18.40;99.90
563;DHT22;266;49.514;8.294;2023-07-29T04:39:05;18.40;99.90
563;DHT22;266;49.514;8.294;2023-07-29T04:41:33;18.40;99.90
563;DHT22;266;49.514;8.294;2023-07-29T04:44:04;18.50;99.90
563;DHT22;266;49.514;8.294;2023-07-29T04:46:32;18.50;99.90
563;DHT22;266;49.514;8.294;2023-07-29T04:49:02;18.50;99.90
563;DHT22;266;49.514;8.294;2023-07-29T04:51:31;18.60;99.90
563;DHT22;266;49.514;8.294;2023-07-29T04:53:59;18.60;99.90
563;DHT22;266;49.514;8.294;2023-07-29T04:56:27;18.60;99.90
563;DHT22;266;49.514;8.294;2023-07-29T04:58:55;18.60;99.90
563;DHT22;266;49.514;8.294;2023-07-29T05:01:24;18.70;99.90
563;DHT22;266;49.514;8.294;2023-07-29T05:03:52;18.70;99.90
563;DHT22;266;49.514;8.294;2023-07-29T05:06:21;18.70;99.90
563;DHT22;266;49.514;8.294;2023-07-29T05:08:49;18.70;99.90
563;DHT22;266;49.514;8.294;2023-07-29T05:11:17;18.70;99.90
563;DHT22;266;49.514;8.294;2023-07-29T05:13:45;18.70;99.90
563;DHT22;266;49.514;8.294;2023-07-29T05:16:13;18.80;99.90
563;DHT22;266;49.514;8.294;2023-07-29T05:18:41;18.80;99.90
563;DHT22;266;49.514;8.294;2023-07-29T05:21:09;18.80;99.90
563;DHT22;266;49.514;8.294;2023-07-29T05:23:39;18.80;99.90
563;DHT22;266;49.514;8.294;2023-07-29T05:26:07;18.90;99.90
563;DHT22;266;49.514;8.294;2023-07-29T05:28:35;18.90;99.90
563;DHT22;266;49.514;8.294;2023-07-29T05:31:03;18.90;99.90
563;DHT22;266;49.514;8.294;2023-07-29T05:33:31;18.90;99.90
563;DHT22;266;49.514;8.294;2023-07-29T05:35:59;18.90;99.90
563;DHT22;266;49.514;8.294;2023-07-29T05:38:27;19.00;99.90
563;DHT22;266;49.514;8.294;2023-07-29T05:40:56;19.00;99.90
563;DHT22;266;49.514;8.294;2023-07-29T05:43:24;19.10;99.90
563;DHT22;266;49.514;8.294;2023-07-29T05:45:52;19.10;99.90
563;DHT22;266;49.514;8.294;2023-07-29T05:48:20;19.10;99.90
563;DHT22;266;49.514;8.294;2023-07-29T05:50:48;19.20;99.90
563;DHT22;266;49.514;8.294;2023-07-29T05:53:17;19.20;99.90
563;DHT22;266;49.514;8.294;2023-07-29T05:55:45;19.30;99.90
563;DHT22;266;49.514;8.294;2023-07-29T05:58:14;19.30;99.90
563;DHT22;266;49.514;8.294;2023-07-29T06:00:42;19.40;99.90
563;DHT22;266;49.514;8.294;2023-07-29T06:03:10;19.40;99.90
563;DHT22;266;49.514;8.294;2023-07-29T06:05:39;19.40;99.90
563;DHT22;266;49.514;8.294;2023-07-29T06:08:07;19.40;99.90
563;DHT22;266;49.514;8.294;2023-07-29T06:10:36;19.50;99.90
563;DHT22;266;49.514;8.294;2023-07-29T06:13:04;19.50;99.90
563;DHT22;266;49.514;8.294;2023-07-29T06:15:34;19.50;99.90
563;DHT22;266;49.514;8.294;2023-07-29T06:18:02;19.50;99.90
563;DHT22;266;49.514;8.294;2023-07-29T06:20:30;19.50;99.90
563;DHT22;266;49.514;8.294;2023-07-29T06:22:58;19.50;99.90
563;DHT22;266;49.514;8.294;2023-07-29T06:25:26;19.50;99.90
563;DHT22;266;49.514;8.294;2023-07-29T06:27:54;19.60;99.90
563;DHT22;266;49.514;8.294;2023-07-29T06:30:22;19.60;99.90
563;DHT22;266;49.514;8.294;2023-07-29T06:32:51;19.60;99.90
563;DHT22;266;49.514;8.294;2023-07-29T06:35:19;19.70;99.90
563;DHT22;266;49.514;8.294;2023-07-29T06:37:47;19.70;99.90
563;DHT22;266;49.514;8.294;2023-07-29T06:40:15;19.70;99.90
563;DHT22;266;49.514;8.294;2023-07-29T06:42:43;19.80;99.90
563;DHT22;266;49.514;8.294;2023-07-29T06:45:11;19.80;99.90
563;DHT22;266;49.514;8.294;2023-07-29T06:47:39;19.90;99.90
563;DHT22;266;49.514;8.294;2023-07-29T06:50:09;20.00;99.90
563;DHT22;266;49.514;8.294;2023-07-29T06:52:37;20.20;99.90
563;DHT22;266;49.514;8.294;2023-07-29T06:55:07;20.30;99.90
563;DHT22;266;49.514;8.294;2023-07-29T06:57:35;20.40;99.90
563;DHT22;266;49.514;8.294;2023-07-29T07:00:04;20.50;99.90
563;DHT22;266;49.514;8.294;2023-07-29T07:02:33;20.60;99.90
563;DHT22;266;49.514;8.294;2023-07-29T07:05:01;20.60;99.90
563;DHT22;266;49.514;8.294;2023-07-29T07:07:30;20.70;99.90
563;DHT22;266;49.514;8.294;2023-07-29T07:09:58;20.70;99.90
563;DHT22;266;49.514;8.294;2023-07-29T07:12:27;20.70;99.90
563;DHT22;266;49.514;8.294;2023-07-29T07:14:55;20.80;99.90
563;DHT22;266;49.514;8.294;2023-07-29T07:17:23;20.70;99.90
563;DHT22;266;49.514;8.294;2023-07-29T07:19:51;20.80;99.90
563;DHT22;266;49.514;8.294;2023-07-29T07:22:19;20.80;99.90
563;DHT22;266;49.514;8.294;2023-07-29T07:24:48;20.80;99.90
563;DHT22;266;49.514;8.294;2023-07-29T07:27:16;20.90;99.90
563;DHT22;266;49.514;8.294;2023-07-29T07:29:44;21.00;99.90
563;DHT22;266;49.514;8.294;2023-07-29T07:32:12;21.20;99.90
563;DHT22;266;49.514;8.294;2023-07-29T07:34:40;21.30;99.90
563;DHT22;266;49.514;8.294;2023-07-29T07:37:08;21.40;99.90
563;DHT22;266;49.514;8.294;2023-07-29T07:39:36;21.40;99.90
563;DHT22;266;49.514;8.294;2023-07-29T07:42:06;21.50;99.90
563;DHT22;266;49.514;8.294;2023-07-29T07:44:35;21.30;99.90
563;DHT22;266;49.514;8.294;2023-07-29T07:47:03;21.00;99.90
563;DHT22;266;49.514;8.294;2023-07-29T07:49:31;20.70;99.90
563;DHT22;266;49.514;8.294;2023-07-29T07:51:59;20.30;99.90
563;DHT22;266;49.514;8.294;2023-07-29T07:54:27;20.10;99.90
563;DHT22;266;49.514;8.294;2023-07-29T07:56:55;19.90;99.90
563;DHT22;266;49.514;8.294;2023-07-29T07:59:24;19.70;99.90
563;DHT22;266;49.514;8.294;2023-07-29T08:01:52;19.70;99.90
563;DHT22;266;49.514;8.294;2023-07-29T08:04:20;19.70;99.90
563;DHT22;266;49.514;8.294;2023-07-29T08:06:48;19.80;99.90
563;DHT22;266;49.514;8.294;2023-07-29T08:09:16;20.00;99.90
563;DHT22;266;49.514;8.294;2023-07-29T08:11:44;20.10;99.90
563;DHT22;266;49.514;8.294;2023-07-29T08:14:12;20.30;99.90
563;DHT22;266;49.514;8.294;2023-07-29T08:16:41;20.30;99.90
563;DHT22;266;49.514;8.294;2023-07-29T08:19:10;20.40;99.90
563;DHT22;266;49.514;8.294;2023-07-29T08:21:38;20.40;99.90
563;DHT22;266;49.514;8.294;2023-07-29T08:24:06;20.40;99.90
563;DHT22;266;49.514;8.294;2023-07-29T08:26:34;20.50;99.90
563;DHT22;266;49.514;8.294;2023-07-29T08:29:02;20.60;99.90
563;DHT22;266;49.514;8.294;2023-07-29T08:31:30;20.70;99.90
563;DHT22;266;49.514;8.294;2023-07-29T08:34:01;20.80;99.90
563;DHT22;266;49.514;8.294;2023-07-29T08:36:29;20.90;99.90
563;DHT22;266;49.514;8.294;2023-07-29T08:38:57;21.10;99.90
563;DHT22;266;49.514;8.294;2023-07-29T08:41:27;21.30;99.90
563;DHT22;266;49.514;8.294;2023-07-29T08:44:10;21.60;99.90
563;DHT22;266;49.514;8.294;2023-07-29T08:46:40;22.20;99.90
563;DHT22;266;49.514;8.294;2023-07-29T08:49:11;22.70;99.90
563;DHT22;266;49.514;8.294;2023-07-29T08:51:42;23.00;99.90
563;DHT22;266;49.514;8.294;2023-07-29T08:54:10;23.10;99.90
563;DHT22;266;49.514;8.294;2023-07-29T08:56:40;23.40;99.90
563;DHT22;266;49.514;8.294;2023-07-29T08:59:08;23.40;99.90
563;DHT22;266;49.514;8.294;2023-07-29T09:01:38;23.30;99.90
563;DHT22;266;49.514;8.294;2023-07-29T09:04:06;23.60;99.90
563;DHT22;266;49.514;8.294;2023-07-29T09:06:36;24.00;99.90
563;DHT22;266;49.514;8.294;2023-07-29T09:09:07;24.20;99.90
563;DHT22;266;49.514;8.294;2023-07-29T09:11:36;24.30;99.90
563;DHT22;266;49.514;8.294;2023-07-29T09:14:04;24.10;99.90
563;DHT22;266;49.514;8.294;2023-07-29T09:16:32;23.90;99.90
563;DHT22;266;49.514;8.294;2023-07-29T09:19:02;23.70;99.90
563;DHT22;266;49.514;8.294;2023-07-29T09:21:30;23.70;99.90
563;DHT22;266;49.514;8.294;2023-07-29T09:24:02;23.60;99.90
563;DHT22;266;49.514;8.294;2023-07-29T09:26:30;23.60;99.90
563;DHT22;266;49.514;8.294;2023-07-29T09:29:00;23.70;99.90
563;DHT22;266;49.514;8.294;2023-07-29T09:31:29;23.80;99.90
563;DHT22;266;49.514;8.294;2023-07-29T09:33:57;24.00;99.90
563;DHT22;266;49.514;8.294;2023-07-29T09:36:26;24.00;99.90
563;DHT22;266;49.514;8.294;2023-07-29T09:38:55;24.10;99.90
563;DHT22;266;49.514;8.294;2023-07-29T09:41:26;24.40;99.90
563;DHT22;266;49.514;8.294;2023-07-29T09:43:58;24.90;99.90
563;DHT22;266;49.514;8.294;2023-07-29T09:46:34;25.30;99.90
563;DHT22;266;49.514;8.294;2023-07-29T09:49:03;25.40;99.90
563;DHT22;266;49.514;8.294;2023-07-29T09:51:37;25.50;99.90
563;DHT22;266;49.514;8.294;2023-07-29T09:54:05;25.70;99.90
563;DHT22;266;49.514;8.294;2023-07-29T09:56:41;25.80;99.90
563;DHT22;266;49.514;8.294;2023-07-29T09:59:10;26.00;99.90
563;DHT22;266;49.514;8.294;2023-07-29T10:01:39;26.50;99.90
563;DHT22;266;49.514;8.294;2023-07-29T10:04:09;26.90;99.90
563;DHT22;266;49.514;8.294;2023-07-29T10:06:39;27.30;99.90
563;DHT22;266;49.514;8.294;2023-07-29T10:09:11;27.50;99.90
563;DHT22;266;49.514;8.294;2023-07-29T10:11:41;27.80;99.90
563;DHT22;266;49.514;8.294;2023-07-29T10:14:08;27.80;99.90
563;DHT22;266;49.514;8.294;2023-07-29T10:16:36;28.00;99.90
563;DHT22;266;49.514;8.294;2023-07-29T10:19:07;28.20;99.90
563;DHT22;266;49.514;8.294;2023-07-29T10:21:36;28.50;99.90
563;DHT22;266;49.514;8.294;2023-07-29T10:24:11;28.60;99.90
563;DHT22;266;49.514;8.294;2023-07-29T10:26:45;28.60;99.90
563;DHT22;266;49.514;8.294;2023-07-29T10:29:14;28.70;99.90
563;DHT22;266;49.514;8.294;2023-07-29T10:31:44;29.00;99.90
563;DHT22;266;49.514;8.294;2023-07-29T10:34:13;29.20;99.90
563;DHT22;266;49.514;8.294;2023-07-29T10:36:42;29.60;99.90
563;DHT22;266;49.514;8.294;2023-07-29T10:39:10;29.60;99.90
563;DHT22;266;49.514;8.294;2023-07-29T10:41:57;29.40;99.90
563;DHT22;266;49.514;8.294;2023-07-29T10:44:46;29.10;99.90
563;DHT22;266;49.514;8.294;2023-07-29T10:47:17;28.80;99.90
563;DHT22;266;49.514;8.294;2023-07-29T10:49:48;28.70;99.90
563;DHT22;266;49.514;8.294;2023-07-29T10:52:27;28.60;99.90
563;DHT22;266;49.514;8.294;2023-07-29T10:54:56;28.30;99.90
563;DHT22;266;49.514;8.294;2023-07-29T10:57:32;27.90;99.90
563;DHT22;266;49.514;8.294;2023-07-29T11:00:01;27.70;99.90
563;DHT22;266;49.514;8.294;2023-07-29T11:02:32;27.90;99.90
563;DHT22;266;49.514;8.294;2023-07-29T11:05:05;28.30;99.90
563;DHT22;266;49.514;8.294;2023-07-29T11:07:43;29.00;99.90
563;DHT22;266;49.514;8.294;2023-07-29T11:10:12;29.50;99.90
563;DHT22;266;49.514;8.294;2023-07-29T11:12:44;29.90;99.90
563;DHT22;266;49.514;8.294;2023-07-29T11:15:19;30.30;99.90
563;DHT22;266;49.514;8.294;2023-07-29T11:17:48;30.50;99.90
563;DHT22;266;49.514;8.294;2023-07-29T11:20:18;30.70;99.90
563;DHT22;266;49.514;8.294;2023-07-29T11:22:47;30.80;99.90
563;DHT22;266;49.514;8.294;2023-07-29T11:25:16;30.60;99.90
563;DHT22;266;49.514;8.294;2023-07-29T11:27:46;30.50;99.90
563;DHT22;266;49.514;8.294;2023-07-29T11:30:15;30.50;99.90
563;DHT22;266;49.514;8.294;2023-07-29T11:32:45;30.50;99.90
563;DHT22;266;49.514;8.294;2023-07-29T11:35:16;30.50;99.90
563;DHT22;266;49.514;8.294;2023-07-29T11:37:45;30.50;99.90
563;DHT22;266;49.514;8.294;2023-07-29T11:40:14;30.60;99.90
563;DHT22;266;49.514;8.294;2023-07-29T11:42:44;30.80;99.90
563;DHT22;266;49.514;8.294;2023-07-29T11:45:13;30.90;99.90
563;DHT22;266;49.514;8.294;2023-07-29T11:47:44;31.00;99.90
563;DHT22;266;49.514;8.294;2023-07-29T11:50:14;31.10;99.90
563;DHT22;266;49.514;8.294;2023-07-29T11:52:43;31.20;99.90
563;DHT22;266;49.514;8.294;2023-07-29T11:55:12;30.80;99.90
563;DHT22;266;49.514;8.294;2023-07-29T11:57:41;30.70;99.90
563;DHT22;266;49.514;8.294;2023-07-29T12:00:12;30.90;99.90
563;DHT22;266;49.514;8.294;2023-07-29T12:02:42;31.00;99.90
563;DHT22;266;49.514;8.294;2023-07-29T12:05:13;31.40;99.90
563;DHT22;266;49.514;8.294;2023-07-29T12:07:43;31.30;99.90
563;DHT22;266;49.514;8.294;2023-07-29T12:10:12;31.40;99.90
563;DHT22;266;49.514;8.294;2023-07-29T12:12:44;31.20;99.90
563;DHT22;266;49.514;8.294;2023-07-29T12:15:23;31.10;99.90
563;DHT22;266;49.514;8.294;2023-07-29T12:17:54;30.90;99.90
563;DHT22;266;49.514;8.294;2023-07-29T12:20:26;30.80;99.90
563;DHT22;266;49.514;8.294;2023-07-29T12:22:57;31.00;99.90
563;DHT22;266;49.514;8.294;2023-07-29T12:25:26;30.90;99.90
563;DHT22;266;49.514;8.294;2023-07-29T12:27:54;30.90;99.90
563;DHT22;266;49.514;8.294;2023-07-29T12:30:23;30.60;99.90
563;DHT22;266;49.514;8.294;2023-07-29T12:32:52;30.20;99.90
563;DHT22;266;49.514;8.294;2023-07-29T12:35:21;30.10;99.90
563;DHT22;266;49.514;8.294;2023-07-29T12:37:58;29.80;99.90
563;DHT22;266;49.514;8.294;2023-07-29T12:40:26;29.90;99.90
563;DHT22;266;49.514;8.294;2023-07-29T12:42:56;30.10;99.90
563;DHT22;266;49.514;8.294;2023-07-29T12:45:26;30.00;99.90
563;DHT22;266;49.514;8.294;2023-07-29T12:47:56;29.60;99.90
563;DHT22;266;49.514;8.294;2023-07-29T12:50:24;29.30;99.90
563;DHT22;266;49.514;8.294;2023-07-29T12:52:52;29.30;99.90
563;DHT22;266;49.514;8.294;2023-07-29T12:55:20;29.70;99.90
563;DHT22;266;49.514;8.294;2023-07-29T12:57:50;30.30;99.90
563;DHT22;266;49.514;8.294;2023-07-29T13:00:18;30.20;99.90
563;DHT22;266;49.514;8.294;2023-07-29T13:02:47;30.00;99.90
563;DHT22;266;49.514;8.294;2023-07-29T13:05:17;29.60;99.90
563;DHT22;266;49.514;8.294;2023-07-29T13:07:45;29.20;99.90
563;DHT22;266;49.514;8.294;2023-07-29T13:10:13;28.70;99.90
563;DHT22;266;49.514;8.294;2023-07-29T13:12:41;28.50;99.90
563;DHT22;266;49.514;8.294;2023-07-29T13:15:09;28.80;99.90
563;DHT22;266;49.514;8.294;2023-07-29T13:17:37;29.00;99.90
563;DHT22;266;49.514;8.294;2023-07-29T13:20:09;29.20;99.90
563;DHT22;266;49.514;8.294;2023-07-29T13:22:37;29.40;99.90
563;DHT22;266;49.514;8.294;2023-07-29T13:25:05;29.80;99.90
563;DHT22;266;49.514;8.294;2023-07-29T13:27:33;30.30;99.90
563;DHT22;266;49.514;8.294;2023-07-29T13:30:01;30.50;99.90
563;DHT22;266;49.514;8.294;2023-07-29T13:32:29;30.50;99.90
563;DHT22;266;49.514;8.294;2023-07-29T13:34:57;30.70;99.90
563;DHT22;266;49.514;8.294;2023-07-29T13:37:26;31.00;99.90
563;DHT22;266;49.514;8.294;2023-07-29T13:39:54;30.80;99.90
563;DHT22;266;49.514;8.294;2023-07-29T13:42:22;30.30;99.90
563;DHT22;266;49.514;8.294;2023-07-29T13:44:50;29.50;99.90
563;DHT22;266;49.514;8.294;2023-07-29T13:47:18;28.90;99.90
563;DHT22;266;49.514;8.294;2023-07-29T13:49:46;28.40;99.90
563;DHT22;266;49.514;8.294;2023-07-29T13:52:15;28.10;99.90
563;DHT22;266;49.514;8.294;2023-07-29T13:54:44;28.20;99.90
563;DHT22;266;49.514;8.294;2023-07-29T13:57:12;28.80;99.90
563;DHT22;266;49.514;8.294;2023-07-29T13:59:40;29.40;99.90
563;DHT22;266;49.514;8.294;2023-07-29T14:02:08;29.90;99.90
563;DHT22;266;49.514;8.294;2023-07-29T14:04:36;30.00;99.90
563;DHT22;266;49.514;8.294;2023-07-29T14:07:04;30.10;99.90
563;DHT22;266;49.514;8.294;2023-07-29T14:09:33;30.40;99.90
563;DHT22;266;49.514;8.294;2023-07-29T14:12:03;30.80;99.90
563;DHT22;266;49.514;8.294;2023-07-29T14:14:31;31.20;99.90
563;DHT22;266;49.514;8.294;2023-07-29T14:16:59;31.40;99.90
563;DHT22;266;49.514;8.294;2023-07-29T14:19:27;31.20;99.90
563;DHT22;266;49.514;8.294;2023-07-29T14:21:55;30.80;99.90
563;DHT22;266;49.514;8.294;2023-07-29T14:24:23;30.10;99.90
563;DHT22;266;49.514;8.294;2023-07-29T14:26:51;29.40;99.90
563;DHT22;266;49.514;8.294;2023-07-29T14:29:20;28.80;99.90
563;DHT22;266;49.514;8.294;2023-07-29T14:31:48;28.30;99.90
563;DHT22;266;49.514;8.294;2023-07-29T14:34:17;27.80;99.90
563;DHT22;266;49.514;8.294;2023-07-29T14:36:47;27.60;99.90
563;DHT22;266;49.514;8.294;2023-07-29T14:39:15;27.60;99.90
563;DHT22;266;49.514;8.294;2023-07-29T14:41:43;27.60;99.90
563;DHT22;266;49.514;8.294;2023-07-29T14:44:11;27.50;99.90
563;DHT22;266;49.514;8.294;2023-07-29T14:46:41;27.50;99.90
563;DHT22;266;49.514;8.294;2023-07-29T14:49:10;27.50;99.90
563;DHT22;266;49.514;8.294;2023-07-29T14:51:39;27.40;99.90
563;DHT22;266;49.514;8.294;2023-07-29T14:54:06;27.50;99.90
563;DHT22;266;49.514;8.294;2023-07-29T14:56:34;27.50;99.90
563;DHT22;266;49.514;8.294;2023-07-29T14:59:03;27.50;99.90
563;DHT22;266;49.514;8.294;2023-07-29T15:01:31;27.60;99.90
563;DHT22;266;49.514;8.294;2023-07-29T15:04:01;28.00;99.90
563;DHT22;266;49.514;8.294;2023-07-29T15:06:29;28.40;99.90
563;DHT22;266;49.514;8.294;2023-07-29T15:08:58;28.80;99.90
563;DHT22;266;49.514;8.294;2023-07-29T15:11:25;29.20;99.90
563;DHT22;266;49.514;8.294;2023-07-29T15:13:54;29.40;99.90
563;DHT22;266;49.514;8.294;2023-07-29T15:16:23;29.20;99.90
563;DHT22;266;49.514;8.294;2023-07-29T15:18:52;28.80;99.90
563;DHT22;266;49.514;8.294;2023-07-29T15:21:21;28.40;99.90
563;DHT22;266;49.514;8.294;2023-07-29T15:23:49;28.10;99.90
563;DHT22;266;49.514;8.294;2023-07-29T15:26:17;28.00;99.90
563;DHT22;266;49.514;8.294;2023-07-29T15:28:46;28.00;99.90
563;DHT22;266;49.514;8.294;2023-07-29T15:31:14;27.80;99.90
563;DHT22;266;49.514;8.294;2023-07-29T15:33:42;27.60;99.90
563;DHT22;266;49.514;8.294;2023-07-29T15:36:10;27.70;99.90
563;DHT22;266;49.514;8.294;2023-07-29T15:38:39;28.10;99.90
563;DHT22;266;49.514;8.294;2023-07-29T15:41:07;28.60;99.90
563;DHT22;266;49.514;8.294;2023-07-29T15:43:35;28.90;99.90
563;DHT22;266;49.514;8.294;2023-07-29T15:46:03;28.90;99.90
563;DHT22;266;49.514;8.294;2023-07-29T15:48:31;29.20;99.90
563;DHT22;266;49.514;8.294;2023-07-29T15:50:59;29.40;99.90
563;DHT22;266;49.514;8.294;2023-07-29T15:53:28;29.40;99.90
563;DHT22;266;49.514;8.294;2023-07-29T15:55:57;29.30;99.90
563;DHT22;266;49.514;8.294;2023-07-29T15:58:25;29.00;99.90
563;DHT22;266;49.514;8.294;2023-07-29T16:00:53;28.60;99.90
563;DHT22;266;49.514;8.294;2023-07-29T16:03:21;28.30;99.90
563;DHT22;266;49.514;8.294;2023-07-29T16:05:50;28.00;99.90
563;DHT22;266;49.514;8.294;2023-07-29T16:08:18;27.80;99.90
563;DHT22;266;49.514;8.294;2023-07-29T16:10:46;27.60;99.90
563;DHT22;266;49.514;8.294;2023-07-29T16:13:15;27.40;99.90
563;DHT22;266;49.514;8.294;2023-07-29T16:15:46;27.20;99.90
563;DHT22;266;49.514;8.294;2023-07-29T16:18:14;27.20;99.90
563;DHT22;266;49.514;8.294;2023-07-29T16:20:42;27.20;99.90
563;DHT22;266;49.514;8.294;2023-07-29T16:23:10;27.20;99.90
563;DHT22;266;49.514;8.294;2023-07-29T16:25:38;27.20;99.90
563;DHT22;266;49.514;8.294;2023-07-29T16:28:06;27.20;99.90
563;DHT22;266;49.514;8.294;2023-07-29T16:30:35;27.10;99.90
563;DHT22;266;49.514;8.294;2023-07-29T16:33:03;27.30;99.90
563;DHT22;266;49.514;8.294;2023-07-29T16:35:31;27.50;99.90
563;DHT22;266;49.514;8.294;2023-07-29T16:37:59;27.50;99.90
563;DHT22;266;49.514;8.294;2023-07-29T16:40:28;27.50;99.90
563;DHT22;266;49.514;8.294;2023-07-29T16:42:56;27.50;99.90
563;DHT22;266;49.514;8.294;2023-07-29T16:45:25;27.40;99.90